createdAt,value
2023-04-27T00:01:24.647Z,65.82
2023-04-27T00:03:54.523Z,65.50
2023-04-27T00:06:23.239Z,65.22
2023-04-27T00:08:51.540Z,65.26
2023-04-27T00:11:19.887Z,65.52
2023-04-27T00:13:48.297Z,65.49
2023-04-27T00:16:16.597Z,65.33
2023-04-27T00:18:44.928Z,65.43
2023-04-27T00:21:14.659Z,65.56
2023-04-27T00:23:43.032Z,65.52
2023-04-27T00:26:11.657Z,65.26
2023-04-27T00:28:41.377Z,65.56
2023-04-27T00:31:09.718Z,65.17
2023-04-27T00:33:38.032Z,65.20
2023-04-27T00:36:07.627Z,65.12
2023-04-27T00:38:37.305Z,65.43
2023-04-27T00:41:08.950Z,65.56
2023-04-27T00:43:44.649Z,67.99
2023-04-27T00:46:15.667Z,67.79
2023-04-27T00:48:44.825Z,68.76
2023-04-27T00:51:13.210Z,68.45
2023-04-27T00:53:43.392Z,69.22
2023-04-27T00:56:12.105Z,70.35
2023-04-27T00:58:40.408Z,72.30
2023-04-27T01:01:08.904Z,71.70
2023-04-27T01:03:38.189Z,71.72
2023-04-27T01:06:08.509Z,71.55
2023-04-27T01:08:37.824Z,72.47
2023-04-27T01:11:07.504Z,73.60
2023-04-27T01:13:35.810Z,74.11
2023-04-27T01:16:04.181Z,75.05
2023-04-27T01:18:33.675Z,75.46
2023-04-27T01:21:02.258Z,76.07
2023-04-27T01:23:32.029Z,75.14
2023-04-27T01:26:00.317Z,74.69
2023-04-27T01:28:28.648Z,74.53
2023-04-27T01:30:57.470Z,74.55
2023-04-27T01:33:27.460Z,73.65
2023-04-27T01:35:55.848Z,73.40
2023-04-27T01:38:24.384Z,74.12
2023-04-27T01:40:55.221Z,73.27
2023-04-27T01:43:23.564Z,73.29
2023-04-27T01:45:51.861Z,73.00
2023-04-27T01:48:20.216Z,72.82
2023-04-27T01:50:48.496Z,72.72
2023-04-27T01:53:16.833Z,72.74
2023-04-27T01:55:45.149Z,72.37
2023-04-27T01:58:14.991Z,72.09
2023-04-27T02:00:43.580Z,72.58
2023-04-27T02:03:11.979Z,72.97
2023-04-27T02:05:40.355Z,73.51
2023-04-27T02:08:08.725Z,74.52
2023-04-27T02:10:37.956Z,75.29
2023-04-27T02:13:06.382Z,76.04
2023-04-27T02:15:37.059Z,76.74
2023-04-27T02:18:05.807Z,77.77
2023-04-27T02:20:34.543Z,78.44
2023-04-27T02:23:02.918Z,78.86
2023-04-27T02:25:31.311Z,78.75
2023-04-27T02:27:59.566Z,78.66
2023-04-27T02:30:28.609Z,79.67
2023-04-27T02:33:01.666Z,80.57
2023-04-27T02:35:30.060Z,80.48
2023-04-27T02:38:01.636Z,81.56
2023-04-27T02:40:29.937Z,81.74
2023-04-27T02:42:59.040Z,81.66
2023-04-27T02:45:28.548Z,82.03
2023-04-27T02:47:56.957Z,81.56
2023-04-27T02:50:26.564Z,81.59
2023-04-27T02:52:55.396Z,81.31
2023-04-27T02:55:23.657Z,80.88
2023-04-27T02:57:51.983Z,81.17
2023-04-27T03:00:20.671Z,81.47
2023-04-27T03:02:49.116Z,80.86
2023-04-27T03:05:17.613Z,80.61
2023-04-27T03:07:47.217Z,80.26
2023-04-27T03:10:15.564Z,80.28
2023-04-27T03:12:44.694Z,80.65
2023-04-27T03:15:13.123Z,80.24
2023-04-27T03:17:41.540Z,80.62
2023-04-27T03:20:12.234Z,81.04
2023-04-27T03:22:40.566Z,80.83
2023-04-27T03:25:10.931Z,80.30
2023-04-27T03:27:40.480Z,80.46
2023-04-27T03:30:10.881Z,80.32
2023-04-27T03:32:39.536Z,80.07
2023-04-27T03:35:09.789Z,80.53
2023-04-27T03:37:38.126Z,80.75
2023-04-27T03:40:10.080Z,80.40
2023-04-27T03:42:38.388Z,80.60
2023-04-27T03:45:08.427Z,80.00
2023-04-27T03:47:36.862Z,79.92
2023-04-27T03:50:06.060Z,79.79
2023-04-27T03:52:34.416Z,79.69
2023-04-27T03:55:02.900Z,79.19
2023-04-27T03:57:32.597Z,78.83
2023-04-27T04:00:01.211Z,78.51
2023-04-27T04:02:29.713Z,78.13
2023-04-27T04:04:59.170Z,78.04
2023-04-27T04:07:27.527Z,77.65
2023-04-27T04:09:55.871Z,77.63
2023-04-27T04:12:24.753Z,77.56
2023-04-27T04:14:54.406Z,77.65
2023-04-27T04:17:22.764Z,77.02
2023-04-27T04:19:51.087Z,76.54
2023-04-27T04:22:19.460Z,76.01
2023-04-27T04:24:47.996Z,75.35
2023-04-27T04:27:17.301Z,74.84
2023-04-27T04:29:45.781Z,74.57
2023-04-27T04:32:17.794Z,74.20
2023-04-27T04:34:50.701Z,74.14
2023-04-27T04:37:19.435Z,73.73
2023-04-27T04:39:47.723Z,73.34
2023-04-27T04:42:16.058Z,72.96
2023-04-27T04:44:45.429Z,73.16
2023-04-27T04:47:15.147Z,73.13
2023-04-27T04:49:43.513Z,72.55
2023-04-27T04:52:11.946Z,72.42
2023-04-27T04:54:40.246Z,72.16
2023-04-27T04:57:08.637Z,72.40
2023-04-27T04:59:37.063Z,72.81
2023-04-27T05:02:05.350Z,72.96
2023-04-27T05:04:35.255Z,73.45
2023-04-27T05:07:04.801Z,74.31
2023-04-27T05:09:33.148Z,74.66
2023-04-27T05:12:03.298Z,74.72
2023-04-27T05:14:31.581Z,74.46
2023-04-27T05:16:59.861Z,75.02
2023-04-27T05:19:31.045Z,74.99
2023-04-27T05:22:01.251Z,74.66
2023-04-27T05:24:29.573Z,73.87
2023-04-27T05:26:58.350Z,72.88
2023-04-27T05:29:28.415Z,72.29
2023-04-27T05:31:57.056Z,71.74
2023-04-27T05:34:25.583Z,71.16
2023-04-27T05:36:53.820Z,70.54
2023-04-27T05:39:23.425Z,70.57
2023-04-27T05:41:52.248Z,70.77
2023-04-27T05:44:20.536Z,70.56
2023-04-27T05:46:48.917Z,70.74
2023-04-27T05:49:17.202Z,71.39
2023-04-27T05:51:45.728Z,70.60
2023-04-27T05:54:14.073Z,70.07
2023-04-27T05:56:43.811Z,70.43
2023-04-27T05:59:12.381Z,71.87
2023-04-27T06:01:40.857Z,71.94
2023-04-27T06:04:09.483Z,73.43
2023-04-27T06:06:38.379Z,73.25
2023-04-27T06:09:07.174Z,72.74
2023-04-27T06:11:35.702Z,73.67
2023-04-27T06:14:05.379Z,74.27
2023-04-27T06:16:34.048Z,74.01
2023-04-27T06:19:02.965Z,74.06
2023-04-27T06:21:34.155Z,74.89
2023-04-27T06:24:02.767Z,74.58
2023-04-27T06:26:31.195Z,73.86
2023-04-27T06:28:59.567Z,73.85
2023-04-27T06:31:29.471Z,72.26
2023-04-27T06:33:57.848Z,72.27
2023-04-27T06:36:27.855Z,73.24
2023-04-27T06:38:56.617Z,72.22
2023-04-27T06:41:26.019Z,72.71
2023-04-27T06:43:56.282Z,70.09
2023-04-27T06:46:27.884Z,70.30
2023-04-27T06:48:56.330Z,71.29
2023-04-27T06:51:26.801Z,70.35
2023-04-27T06:53:57.307Z,70.37
2023-04-27T06:56:26.173Z,68.43
2023-04-27T06:58:54.526Z,68.38
2023-04-27T07:01:22.903Z,68.91
2023-04-27T07:03:52.758Z,69.77
2023-04-27T07:06:22.268Z,68.95
2023-04-27T07:08:50.578Z,68.89
2023-04-27T07:11:19.048Z,68.77
2023-04-27T07:13:47.400Z,67.41
2023-04-27T07:16:16.638Z,68.07
2023-04-27T07:18:45.517Z,67.97
2023-04-27T07:21:15.376Z,64.80
2023-04-27T07:23:43.812Z,65.37
2023-04-27T07:26:13.012Z,65.74
2023-04-27T07:28:41.362Z,64.54
2023-04-27T07:31:09.913Z,64.47
2023-04-27T07:33:38.553Z,64.43
2023-04-27T07:36:07.896Z,66.89
2023-04-27T07:38:38.442Z,63.38
2023-04-27T07:41:07.459Z,64.72
2023-04-27T07:43:36.522Z,63.86
2023-04-27T07:46:05.685Z,62.86
2023-04-27T07:48:34.096Z,63.76
2023-04-27T07:51:02.595Z,63.08
2023-04-27T07:53:31.216Z,63.00
2023-04-27T07:56:01.040Z,62.18
2023-04-27T07:58:29.378Z,65.09
2023-04-27T08:00:57.862Z,62.19
2023-04-27T08:03:26.368Z,62.92
2023-04-27T08:05:55.155Z,61.05
2023-04-27T08:08:24.001Z,61.25
2023-04-27T08:10:52.333Z,61.57
2023-04-27T08:13:24.313Z,60.36
2023-04-27T08:15:58.446Z,59.68
2023-04-27T08:18:27.219Z,58.20
2023-04-27T08:20:56.055Z,61.00
2023-04-27T08:23:24.818Z,60.11
2023-04-27T08:25:53.156Z,60.79
2023-04-27T08:28:23.219Z,57.86
2023-04-27T08:30:51.824Z,55.59
2023-04-27T08:33:20.345Z,57.96
2023-04-27T08:35:48.688Z,57.75
2023-04-27T08:38:16.954Z,57.09
2023-04-27T08:40:45.535Z,56.92
2023-04-27T08:43:13.882Z,57.61
2023-04-27T08:45:50.442Z,57.05
2023-04-27T08:48:20.279Z,56.27
2023-04-27T08:50:52.476Z,55.87
2023-04-27T08:53:22.240Z,57.66
2023-04-27T08:55:51.397Z,53.35
2023-04-27T08:58:19.808Z,54.75
2023-04-27T09:00:52.416Z,53.59
2023-04-27T09:03:24.486Z,52.47
2023-04-27T09:06:04.545Z,53.22
2023-04-27T09:08:45.510Z,52.91
2023-04-27T09:11:14.246Z,52.71
2023-04-27T09:13:45.304Z,55.71
2023-04-27T09:16:15.654Z,52.67
2023-04-27T09:18:45.429Z,52.62
2023-04-27T09:21:24.269Z,52.58
2023-04-27T09:23:53.091Z,52.72
2023-04-27T09:26:23.817Z,53.29
2023-04-27T09:28:52.882Z,53.91
2023-04-27T09:31:22.779Z,52.91
2023-04-27T09:33:57.273Z,51.43
2023-04-27T09:36:26.928Z,50.08
2023-04-27T09:38:55.656Z,51.95
2023-04-27T09:41:24.249Z,52.26
2023-04-27T09:43:57.064Z,51.00
2023-04-27T09:46:30.097Z,50.16
2023-04-27T09:48:59.572Z,51.24
2023-04-27T09:51:28.042Z,52.02
2023-04-27T09:54:01.549Z,52.50
2023-04-27T09:56:43.678Z,52.44
2023-04-27T09:59:34.480Z,50.74
2023-04-27T10:02:13.554Z,50.93
2023-04-27T10:05:29.019Z,49.97
2023-04-27T10:07:57.688Z,50.04
2023-04-27T10:10:26.496Z,48.98
2023-04-27T10:13:01.836Z,51.28
2023-04-27T10:15:32.087Z,49.84
2023-04-27T10:18:07.321Z,48.65
2023-04-27T10:20:38.695Z,47.84
2023-04-27T10:23:07.040Z,47.82
2023-04-27T10:25:41.427Z,47.04
2023-04-27T10:28:09.936Z,48.54
2023-04-27T10:30:40.097Z,48.01
2023-04-27T10:33:12.050Z,47.36
2023-04-27T10:35:42.318Z,48.59
2023-04-27T10:38:16.681Z,46.94
2023-04-27T10:40:47.189Z,49.57
2023-04-27T10:43:17.491Z,50.72
2023-04-27T10:45:46.637Z,47.58
2023-04-27T10:48:16.604Z,48.50
2023-04-27T10:50:46.805Z,49.81
2023-04-27T10:53:15.727Z,46.59
2023-04-27T10:55:44.160Z,46.23
2023-04-27T10:58:12.674Z,45.83
2023-04-27T11:00:44.334Z,46.37
2023-04-27T11:03:18.209Z,46.69
2023-04-27T11:05:49.077Z,48.03
2023-04-27T11:08:20.948Z,47.47
2023-04-27T11:10:51.006Z,48.74
2023-04-27T11:13:21.427Z,46.73
2023-04-27T11:15:51.959Z,47.33
2023-04-27T11:18:23.665Z,46.94
2023-04-27T11:20:55.975Z,46.74
2023-04-27T11:23:26.240Z,47.53
2023-04-27T11:25:55.131Z,45.22
2023-04-27T11:28:24.570Z,44.95
2023-04-27T11:30:59.023Z,47.31
2023-04-27T11:33:29.537Z,43.93
2023-04-27T11:35:58.244Z,45.95
2023-04-27T11:38:27.621Z,43.28
2023-04-27T11:41:05.528Z,43.91
2023-04-27T11:43:34.876Z,45.65
2023-04-27T11:46:05.974Z,44.79
2023-04-27T11:48:38.422Z,44.02
2023-04-27T11:51:07.841Z,45.00
2023-04-27T11:53:38.474Z,46.83
2023-04-27T11:56:11.108Z,43.29
2023-04-27T11:58:40.936Z,42.60
2023-04-27T12:01:12.054Z,44.38
2023-04-27T12:03:42.164Z,42.68
2023-04-27T12:06:28.071Z,45.22
2023-04-27T12:08:59.024Z,43.81
2023-04-27T12:11:28.893Z,44.64
2023-04-27T12:13:57.524Z,45.93
2023-04-27T12:16:25.958Z,44.94
2023-04-27T12:18:55.643Z,44.80
2023-04-27T12:21:23.976Z,45.47
2023-04-27T12:23:52.779Z,43.94
2023-04-27T12:26:21.482Z,43.08
2023-04-27T12:28:50.042Z,44.22
2023-04-27T12:31:24.102Z,44.40
2023-04-27T12:33:55.261Z,47.87
2023-04-27T12:36:23.670Z,44.32
2023-04-27T12:38:52.212Z,45.19
2023-04-27T12:41:20.597Z,44.71
2023-04-27T12:43:49.029Z,45.52
2023-04-27T12:46:18.332Z,44.39
2023-04-27T12:48:47.443Z,43.28
2023-04-27T12:51:17.127Z,44.24
2023-04-27T12:53:45.532Z,44.58
2023-04-27T12:56:13.830Z,44.15
2023-04-27T12:58:42.141Z,43.84
2023-04-27T13:01:14.868Z,43.46
2023-04-27T13:03:43.772Z,44.64
2023-04-27T13:06:12.427Z,43.39
2023-04-27T13:08:42.869Z,44.85
2023-04-27T13:11:11.570Z,44.40
2023-04-27T13:13:39.948Z,44.75
2023-04-27T13:16:08.690Z,44.79
2023-04-27T13:18:37.153Z,43.38
2023-04-27T13:21:06.713Z,44.46
2023-04-27T13:23:35.515Z,45.68
2023-04-27T13:26:06.969Z,45.99
2023-04-27T13:28:35.414Z,47.71
2023-04-27T13:31:04.050Z,43.65
2023-04-27T13:33:40.898Z,44.20
2023-04-27T13:36:09.832Z,43.33
2023-04-27T13:38:38.481Z,44.47
2023-04-27T13:41:08.860Z,43.25
2023-04-27T13:43:37.354Z,43.55
2023-04-27T13:46:07.571Z,46.07
2023-04-27T13:48:36.197Z,44.06
2023-04-27T13:51:04.651Z,41.57
2023-04-27T13:53:33.048Z,42.59
2023-04-27T13:56:01.344Z,44.00
2023-04-27T13:58:31.223Z,45.25
2023-04-27T14:00:59.743Z,42.61
2023-04-27T14:03:28.401Z,44.41
2023-04-27T14:05:57.147Z,44.45
2023-04-27T14:08:25.648Z,45.66
2023-04-27T14:10:54.218Z,47.76
2023-04-27T14:13:22.817Z,46.77
2023-04-27T14:15:52.554Z,47.98
2023-04-27T14:18:20.863Z,46.90
2023-04-27T14:20:49.312Z,48.06
2023-04-27T14:23:17.717Z,45.91
2023-04-27T14:25:46.390Z,46.12
2023-04-27T14:28:15.482Z,45.56
2023-04-27T14:30:43.927Z,48.92
2023-04-27T14:33:13.679Z,45.54
2023-04-27T14:35:42.155Z,45.26
2023-04-27T14:38:10.600Z,45.72
2023-04-27T14:40:38.991Z,44.49
2023-04-27T14:43:08.088Z,45.63
2023-04-27T14:45:50.228Z,45.95
2023-04-27T14:48:23.395Z,47.23
2023-04-27T14:50:51.639Z,45.36
2023-04-27T14:53:20.056Z,46.26
2023-04-27T14:55:48.546Z,46.83
2023-04-27T14:58:17.235Z,45.41
2023-04-27T15:00:45.715Z,44.33
2023-04-27T15:03:14.103Z,44.60
2023-04-27T15:05:44.041Z,46.51
2023-04-27T15:08:12.642Z,45.01
2023-04-27T15:10:41.059Z,43.83
2023-04-27T15:13:09.518Z,44.49
2023-04-27T15:15:37.886Z,44.10
2023-04-27T15:18:06.795Z,46.25
2023-04-27T15:20:35.262Z,43.56
2023-04-27T15:23:05.070Z,43.77
2023-04-27T15:25:33.509Z,44.81
2023-04-27T15:28:03.299Z,44.29
2023-04-27T15:30:31.598Z,46.02
2023-04-27T15:33:02.581Z,46.48
2023-04-27T15:35:32.436Z,43.98
2023-04-27T15:38:03.775Z,44.96
2023-04-27T15:40:34.166Z,44.93
2023-04-27T15:43:02.886Z,46.91
2023-04-27T15:45:31.829Z,44.50
2023-04-27T15:48:00.615Z,45.35
2023-04-27T15:50:28.968Z,45.75
2023-04-27T15:52:57.421Z,46.32
2023-04-27T15:55:25.913Z,45.46
2023-04-27T15:57:56.147Z,45.75
2023-04-27T16:00:24.833Z,44.53
2023-04-27T16:02:53.472Z,45.90
2023-04-27T16:05:22.135Z,45.22
2023-04-27T16:07:50.518Z,45.96
2023-04-27T16:10:18.896Z,44.07
2023-04-27T16:12:47.464Z,44.52
2023-04-27T16:15:17.386Z,45.42
2023-04-27T16:17:45.843Z,44.25
2023-04-27T16:20:14.384Z,44.73
2023-04-27T16:22:42.924Z,44.67
2023-04-27T16:25:12.008Z,44.14
2023-04-27T16:27:40.883Z,44.35
2023-04-27T16:30:10.490Z,44.92
2023-04-27T16:32:40.302Z,44.36
2023-04-27T16:35:09.601Z,44.65
2023-04-27T16:37:38.263Z,44.88
2023-04-27T16:40:08.585Z,44.84
2023-04-27T16:42:36.986Z,44.22
2023-04-27T16:45:09.187Z,44.59
2023-04-27T16:47:41.913Z,44.72
2023-04-27T16:50:11.749Z,44.17
2023-04-27T16:52:40.561Z,45.27
2023-04-27T16:55:09.633Z,45.88
2023-04-27T16:57:38.182Z,46.26
2023-04-27T17:00:09.670Z,45.73
2023-04-27T17:02:39.476Z,45.30
2023-04-27T17:05:11.954Z,46.78
2023-04-27T17:07:40.281Z,46.76
2023-04-27T17:10:09.942Z,46.68
2023-04-27T17:12:38.363Z,47.00
2023-04-27T17:15:08.733Z,45.59
2023-04-27T17:17:37.397Z,47.06
2023-04-27T17:20:09.256Z,46.14
2023-04-27T17:22:39.259Z,47.56
2023-04-27T17:25:09.212Z,46.25
2023-04-27T17:27:37.525Z,47.45
2023-04-27T17:30:08.235Z,46.40
2023-04-27T17:32:36.835Z,47.68
2023-04-27T17:35:05.635Z,46.52
2023-04-27T17:37:34.105Z,47.41
2023-04-27T17:40:04.346Z,46.18
2023-04-27T17:42:32.660Z,47.01
2023-04-27T17:45:01.102Z,46.58
2023-04-27T17:47:29.525Z,47.66
2023-04-27T17:49:57.976Z,47.71
2023-04-27T17:52:26.514Z,47.53
2023-04-27T17:54:55.688Z,47.28
2023-04-27T17:57:25.409Z,47.51
2023-04-27T18:00:05.699Z,47.17
2023-04-27T18:02:39.331Z,47.61
2023-04-27T18:05:08.728Z,47.68
2023-04-27T18:07:39.758Z,47.43
2023-04-27T18:10:10.101Z,47.06
2023-04-27T18:12:39.866Z,47.31
2023-04-27T18:15:10.077Z,47.92
2023-04-27T18:17:38.567Z,47.85
2023-04-27T18:20:10.103Z,47.46
2023-04-27T18:22:40.143Z,48.23
2023-04-27T18:25:10.877Z,48.02
2023-04-27T18:27:40.744Z,48.00
2023-04-27T18:30:09.841Z,48.40
2023-04-27T18:32:38.419Z,48.32
2023-04-27T18:35:07.830Z,48.09
2023-04-27T18:37:36.223Z,48.35
2023-04-27T18:40:05.847Z,47.60
2023-04-27T18:42:34.268Z,48.07
2023-04-27T18:45:04.011Z,48.67
2023-04-27T18:47:32.437Z,48.42
2023-04-27T18:50:00.778Z,47.74
2023-04-27T18:52:29.089Z,48.42
2023-04-27T18:54:57.375Z,47.76
2023-04-27T18:57:26.520Z,48.10
2023-04-27T18:59:54.873Z,48.71
2023-04-27T19:02:25.893Z,48.63
2023-04-27T19:05:10.905Z,47.85
2023-04-27T19:07:41.208Z,48.42
2023-04-27T19:10:11.232Z,47.97
2023-04-27T19:12:39.677Z,48.01
2023-04-27T19:15:08.705Z,48.84
2023-04-27T19:17:38.822Z,47.93
2023-04-27T19:20:09.242Z,47.94
2023-04-27T19:22:37.923Z,48.43
2023-04-27T19:25:07.428Z,48.39
2023-04-27T19:27:35.837Z,49.16
2023-04-27T19:30:04.327Z,47.98
2023-04-27T19:32:34.317Z,48.49
2023-04-27T19:35:04.756Z,48.29
2023-04-27T19:37:33.108Z,48.18
2023-04-27T19:40:01.492Z,47.85
2023-04-27T19:42:30.586Z,48.50
2023-04-27T19:44:58.964Z,49.74
2023-04-27T19:47:27.304Z,49.36
2023-04-27T19:49:58.379Z,48.90
2023-04-27T19:52:28.389Z,48.33
2023-04-27T19:54:57.702Z,49.15
2023-04-27T19:57:26.100Z,48.80
2023-04-27T19:59:54.481Z,49.04
2023-04-27T20:02:23.014Z,49.30
2023-04-27T20:04:51.937Z,49.95
2023-04-27T20:07:20.441Z,49.60
2023-04-27T20:09:50.225Z,49.96
2023-04-27T20:12:37.389Z,49.92
2023-04-27T20:15:09.132Z,50.54
2023-04-27T20:17:37.771Z,51.04
2023-04-27T20:20:10.436Z,50.83
2023-04-27T20:22:38.851Z,51.17
2023-04-27T20:25:09.982Z,50.79
2023-04-27T20:27:38.393Z,50.99
2023-04-27T20:30:08.601Z,51.11
2023-04-27T20:32:39.480Z,50.85
2023-04-27T20:35:11.146Z,50.99
2023-04-27T20:37:40.261Z,52.01
2023-04-27T20:40:14.609Z,51.76
2023-04-27T20:42:43.584Z,51.86
2023-04-27T20:45:13.142Z,51.65
2023-04-27T20:47:42.019Z,51.50
2023-04-27T20:50:10.797Z,51.44
2023-04-27T20:52:39.222Z,51.79
2023-04-27T20:55:09.967Z,51.76
2023-04-27T20:57:38.259Z,51.73
2023-04-27T21:00:09.961Z,52.21
2023-04-27T21:02:38.650Z,52.02
2023-04-27T21:05:07.207Z,51.64
2023-04-27T21:07:35.595Z,51.69
2023-04-27T21:10:06.820Z,52.04
2023-04-27T21:12:37.029Z,51.72
2023-04-27T21:15:06.310Z,51.42
2023-04-27T21:17:34.723Z,51.37
2023-04-27T21:20:03.389Z,51.17
2023-04-27T21:22:31.768Z,51.49
2023-04-27T21:25:00.182Z,52.63
2023-04-27T21:27:29.856Z,52.08
2023-04-27T21:29:59.926Z,52.18
2023-04-27T21:32:28.508Z,52.49
2023-04-27T21:34:56.819Z,52.81
2023-04-27T21:37:25.218Z,52.38
2023-04-27T21:39:53.645Z,52.58
2023-04-27T21:42:21.988Z,52.49
2023-04-27T21:44:50.409Z,53.03
2023-04-27T21:47:20.103Z,52.30
2023-04-27T21:49:49.355Z,53.21
2023-04-27T21:52:19.837Z,53.31
2023-04-27T21:54:48.219Z,53.82
2023-04-27T21:57:18.733Z,53.71
2023-04-27T21:59:48.339Z,53.78
2023-04-27T22:02:17.100Z,53.63
2023-04-27T22:04:47.809Z,53.71
2023-04-27T22:07:16.054Z,53.78
2023-04-27T22:09:44.586Z,54.45
2023-04-27T22:12:12.975Z,53.70
2023-04-27T22:14:41.883Z,54.09
2023-04-27T22:17:12.606Z,53.97
2023-04-27T22:19:41.563Z,54.06
2023-04-27T22:22:11.568Z,54.48
2023-04-27T22:24:39.913Z,53.66
2023-04-27T22:27:08.272Z,53.95
2023-04-27T22:29:36.604Z,53.60
2023-04-27T22:32:05.439Z,54.27
2023-04-27T22:34:34.126Z,54.15
2023-04-27T22:37:03.082Z,53.66
2023-04-27T22:39:33.330Z,54.37
2023-04-27T22:42:01.677Z,53.51
2023-04-27T22:44:30.335Z,53.46
2023-04-27T22:47:00.919Z,54.18
2023-04-27T22:49:29.666Z,53.89
2023-04-27T22:51:58.002Z,53.75
2023-04-27T22:54:26.390Z,53.36
2023-04-27T22:56:57.316Z,53.96
2023-04-27T22:59:25.705Z,53.94
2023-04-27T23:01:54.040Z,53.34
2023-04-27T23:04:23.235Z,53.58
2023-04-27T23:06:53.699Z,53.41
2023-04-27T23:09:22.672Z,53.69
2023-04-27T23:11:51.212Z,54.02
2023-04-27T23:14:20.964Z,53.75
2023-04-27T23:16:49.734Z,54.31
2023-04-27T23:19:18.191Z,54.19
2023-04-27T23:21:46.489Z,54.41
2023-04-27T23:24:14.982Z,54.58
2023-04-27T23:26:43.460Z,55.83
2023-04-27T23:29:11.809Z,55.27
2023-04-27T23:31:41.484Z,55.51
2023-04-27T23:34:09.803Z,55.40
2023-04-27T23:36:38.198Z,56.08
2023-04-27T23:39:06.486Z,55.65
2023-04-27T23:41:35.004Z,56.33
2023-04-27T23:44:03.311Z,57.30
2023-04-27T23:46:31.613Z,57.09
2023-04-27T23:49:01.462Z,58.88
2023-04-27T23:51:29.796Z,60.02
2023-04-27T23:53:58.245Z,59.81
2023-04-27T23:56:26.752Z,59.56
2023-04-27T23:58:55.113Z,60.37
